Time;durP1;ratioP1;P1;durP2;ratioP2;P2;SDS_P1;SDS_P2;PMS_P1;PMS_P2;Temp;Humidity;BMP_temperature;BMP_pressure;BME280_temperature;BME280_humidity;BME280_pressure;Samples;Min_cycle;Max_cycle;Signal;HPM_P1;HPM_P2
2022/07/23 00:00:39;;;;;;;;;;;;;;;21.57;46.02;99407.28;4921922;29;20456;-94
2022/07/23 00:03:04;;;;;;;;;;;;;;;21.55;45.47;99409.56;4922472;29;19915;-94
2022/07/23 00:05:30;;;;;;;;;;;;;;;21.60;45.36;99405.78;4922633;29;19915;-94
2022/07/23 00:07:55;;;;;;;;;;;;;;;21.56;45.58;99408.44;4923355;29;19915;-94
2022/07/23 00:10:20;;;;;;;;;;;;;;;21.50;46.84;99418.00;4921845;29;19915;-95
2022/07/23 00:12:45;;;;;;;;;;;;;;;21.49;45.95;99407.38;4922435;29;19919;-93
2022/07/23 00:15:11;;;;;;;;;;;;;;;21.44;45.96;99407.63;4922597;29;19915;-94
2022/07/23 00:17:36;;;;;;;;;;;;;;;21.32;45.68;99398.19;4922043;29;19914;-93
2022/07/23 00:20:01;;;;;;;;;;;;;;;21.28;46.00;99410.97;4921406;29;19922;-94
2022/07/23 00:22:28;;;;;;;;;;;;;;;21.24;45.35;99406.50;4921755;29;19918;-94
2022/07/23 00:24:54;;;;;;;;;;;;;;;21.22;45.66;99406.84;4921383;29;19915;-93
2022/07/23 00:27:19;;;;;;;;;;;;;;;21.23;45.77;99402.16;4922182;29;19982;-94
2022/07/23 00:29:44;;;;;;;;;;;;;;;21.13;45.21;99404.22;4926227;29;20024;-94
2022/07/23 00:32:10;;;;;;;;;;;;;;;21.13;44.84;99406.94;4924771;29;20395;-94
2022/07/23 00:34:35;;;;;;;;;;;;;;;21.14;44.95;99400.31;4925383;29;20005;-94
2022/07/23 00:37:00;;;;;;;;;;;;;;;21.20;44.87;99398.97;4925456;29;19918;-95
2022/07/23 00:39:26;;;;;;;;;;;;;;;21.25;44.50;99403.44;4925049;29;19922;-94
2022/07/23 00:41:51;;;;;;;;;;;;;;;21.28;44.58;99393.75;4925096;29;19918;-93
2022/07/23 00:44:17;;;;;;;;;;;;;;;21.25;45.26;99391.66;4925325;29;20400;-95
2022/07/23 00:46:48;;;;;;;;;;;;;;;21.24;45.40;99404.56;4925321;29;19914;-94
2022/07/23 00:49:14;;;;;;;;;;;;;;;21.18;45.72;99398.50;4925272;29;19923;-94
2022/07/23 00:51:39;;;;;;;;;;;;;;;21.17;46.04;99391.44;4925063;29;20391;-93
2022/07/23 00:54:04;;;;;;;;;;;;;;;21.19;45.76;99400.13;4925949;29;19953;-95
2022/07/23 00:56:30;;;;;;;;;;;;;;;21.10;45.84;99406.81;4924700;29;19997;-94
2022/07/23 00:58:55;;;;;;;;;;;;;;;21.09;46.32;99400.53;4924755;29;19915;-94
2022/07/23 01:01:21;;;;;;;;;;;;;;;21.10;46.28;99396.66;4924648;29;19915;-93
2022/07/23 01:03:46;;;;;;;;;;;;;;;21.09;46.14;99399.75;4924700;29;20009;-93
2022/07/23 01:06:11;;;;;;;;;;;;;;;21.07;46.98;99400.09;4923996;29;19915;-96
2022/07/23 01:08:37;;;;;;;;;;;;;;;21.06;46.48;99398.47;4925421;29;19976;-94
2022/07/23 01:11:03;;;;;;;;;;;;;;;20.98;46.30;99400.19;4925130;29;19919;-93
2022/07/23 01:13:28;;;;;;;;;;;;;;;20.98;46.64;99399.38;4924508;29;20357;-94
2022/07/23 01:15:56;;;;;;;;;;;;;;;20.98;47.35;99393.91;4925539;29;19978;-95
2022/07/23 01:18:21;;;;;;;;;;;;;;;20.93;48.05;99394.91;4924636;29;20505;-93
2022/07/23 01:20:46;;;;;;;;;;;;;;;20.86;47.37;99391.91;4925650;29;19969;-93
2022/07/23 01:23:12;;;;;;;;;;;;;;;20.84;47.83;99390.66;4925181;29;20365;-93
2022/07/23 01:25:37;;;;;;;;;;;;;;;20.76;48.40;99395.88;4924973;29;19926;-94
2022/07/23 01:28:02;;;;;;;;;;;;;;;20.69;48.28;99389.31;4923966;29;19921;-95
2022/07/23 01:30:28;;;;;;;;;;;;;;;20.62;48.55;99391.81;4924888;29;19923;-92
2022/07/23 01:32:53;;;;;;;;;;;;;;;20.58;48.21;99394.41;4924486;29;19938;-93
2022/07/23 01:35:18;;;;;;;;;;;;;;;20.54;47.43;99390.72;4924424;29;20391;-94
2022/07/23 01:37:44;;;;;;;;;;;;;;;20.50;47.74;99392.53;4924080;29;19920;-94
2022/07/23 01:40:09;;;;;;;;;;;;;;;20.49;47.44;99390.94;4925031;29;19919;-93
2022/07/23 01:42:36;;;;;;;;;;;;;;;20.64;46.70;99389.53;4924636;29;19918;-93
2022/07/23 01:45:01;;;;;;;;;;;;;;;20.71;46.69;99396.09;4924874;29;19914;-95
2022/07/23 01:47:27;;;;;;;;;;;;;;;20.67;46.90;99389.69;4940336;29;19991;-93
2022/07/23 01:49:52;;;;;;;;;;;;;;;20.73;46.32;99391.09;4924527;29;19918;-93
2022/07/23 01:52:17;;;;;;;;;;;;;;;20.74;47.08;99395.41;4924059;29;19918;-94
2022/07/23 01:54:42;;;;;;;;;;;;;;;20.76;47.77;99395.06;4924036;29;19915;-95
2022/07/23 01:57:08;;;;;;;;;;;;;;;20.69;48.32;99390.16;4924131;29;19973;-94
2022/07/23 01:59:33;;;;;;;;;;;;;;;20.62;48.64;99389.09;4924724;29;19985;-93
2022/07/23 02:01:59;;;;;;;;;;;;;;;20.56;48.85;99399.38;4940673;29;20402;-94
2022/07/23 02:04:24;;;;;;;;;;;;;;;20.51;48.87;99394.13;4924255;29;20001;-94
2022/07/23 02:06:49;;;;;;;;;;;;;;;20.48;48.94;99392.06;4924715;29;19914;-94
2022/07/23 02:09:15;;;;;;;;;;;;;;;20.44;49.34;99394.69;4924197;29;19915;-92
2022/07/23 02:11:40;;;;;;;;;;;;;;;20.34;49.69;99397.81;4923659;29;20046;-94
2022/07/23 02:14:05;;;;;;;;;;;;;;;20.26;49.42;99399.47;4923480;29;19986;-95
2022/07/23 02:16:31;;;;;;;;;;;;;;;20.18;49.65;99398.38;4923649;29;19915;-95
2022/07/23 02:18:57;;;;;;;;;;;;;;;20.13;49.41;99400.50;4924776;29;19931;-94
2022/07/23 02:21:22;;;;;;;;;;;;;;;20.06;49.52;99398.28;4924036;29;19914;-95
2022/07/23 02:23:47;;;;;;;;;;;;;;;20.05;49.82;99391.25;4940189;29;19946;-96
2022/07/23 02:26:13;;;;;;;;;;;;;;;19.97;49.67;99392.09;4940812;29;19941;-94
2022/07/23 02:28:38;;;;;;;;;;;;;;;19.98;50.17;99394.50;4922864;29;19930;-92
2022/07/23 02:31:03;;;;;;;;;;;;;;;20.01;49.95;99395.78;4923765;28;19925;-93
2022/07/23 02:33:29;;;;;;;;;;;;;;;20.03;49.99;99400.91;4930893;28;19921;-93
2022/07/23 02:35:54;;;;;;;;;;;;;;;20.00;49.37;99402.34;4941866;28;19949;-92
2022/07/23 02:38:19;;;;;;;;;;;;;;;19.98;49.33;99405.44;4941918;28;19918;-92
2022/07/23 02:40:45;;;;;;;;;;;;;;;20.02;49.13;99404.75;4948148;28;19918;-93
2022/07/23 02:43:10;;;;;;;;;;;;;;;20.00;50.07;99405.09;4946100;28;19922;-93
2022/07/23 02:45:35;;;;;;;;;;;;;;;20.01;49.44;99414.09;4962422;28;19934;-93
2022/07/23 02:48:00;;;;;;;;;;;;;;;20.06;48.84;99420.16;4949067;28;19921;-93
2022/07/23 02:50:26;;;;;;;;;;;;;;;20.14;48.31;99413.84;4945330;28;19925;-93
2022/07/23 02:52:51;;;;;;;;;;;;;;;20.12;47.94;99413.38;4961660;28;20020;-93
2022/07/23 02:55:16;;;;;;;;;;;;;;;20.14;47.69;99413.84;4961772;28;20402;-93
2022/07/23 02:57:42;;;;;;;;;;;;;;;20.15;48.73;99420.94;4960549;28;19918;-93
2022/07/23 03:00:07;;;;;;;;;;;;;;;20.16;48.71;99417.03;4942533;29;19918;-92
2022/07/23 03:02:32;;;;;;;;;;;;;;;20.18;48.40;99428.47;4926637;28;19920;-92
2022/07/23 03:04:58;;;;;;;;;;;;;;;20.16;47.46;99432.66;4980894;28;19925;-92
2022/07/23 03:07:23;;;;;;;;;;;;;;;20.16;48.54;99430.72;4980588;28;20368;-93
2022/07/23 03:09:48;;;;;;;;;;;;;;;20.22;48.62;99430.53;4946101;28;19976;-93
2022/07/23 03:12:14;;;;;;;;;;;;;;;20.17;47.99;99432.34;4945534;28;20384;-92
2022/07/23 03:14:39;;;;;;;;;;;;;;;20.29;47.13;99439.00;4961729;28;19914;-93
2022/07/23 03:17:04;;;;;;;;;;;;;;;20.38;46.10;99437.81;4964293;28;19979;-92
2022/07/23 03:19:30;;;;;;;;;;;;;;;20.55;45.73;99447.03;4980563;28;20380;-93
2022/07/23 03:21:55;;;;;;;;;;;;;;;20.62;45.64;99443.81;4963768;28;19914;-92
2022/07/23 03:24:20;;;;;;;;;;;;;;;20.68;46.62;99435.03;4965125;28;19914;-92
2022/07/23 03:26:46;;;;;;;;;;;;;;;20.52;46.73;99440.31;4944766;28;19915;-92
2022/07/23 03:29:11;;;;;;;;;;;;;;;20.49;47.58;99440.16;4930711;29;19923;-93
2022/07/23 03:31:36;;;;;;;;;;;;;;;20.44;47.46;99440.34;4958251;28;19918;-93
2022/07/23 03:34:02;;;;;;;;;;;;;;;20.41;48.13;99444.56;4965106;28;19914;-93
2022/07/23 03:36:27;;;;;;;;;;;;;;;20.37;48.48;99443.63;4979873;28;19984;-93
2022/07/23 03:38:52;;;;;;;;;;;;;;;20.32;48.74;99450.09;4969348;28;19945;-93
2022/07/23 03:41:18;;;;;;;;;;;;;;;20.30;48.73;99444.16;4960464;28;19922;-93
2022/07/23 03:43:43;;;;;;;;;;;;;;;20.24;48.94;99450.16;4950716;28;20274;-93
2022/07/23 03:46:09;;;;;;;;;;;;;;;20.18;48.61;99447.59;4941086;28;19949;-92
2022/07/23 03:48:34;;;;;;;;;;;;;;;20.27;49.29;99460.41;4949059;28;20376;-93
2022/07/23 03:51:00;;;;;;;;;;;;;;;20.17;49.41;99454.22;4960347;28;19909;-92
2022/07/23 03:53:25;;;;;;;;;;;;;;;20.12;49.50;99454.38;4951747;28;19953;-92
2022/07/23 03:55:50;;;;;;;;;;;;;;;20.08;50.04;99456.16;4979781;28;19918;-93
2022/07/23 03:58:16;;;;;;;;;;;;;;;20.04;50.07;99459.91;4957075;28;19915;-92
2022/07/23 04:00:41;;;;;;;;;;;;;;;20.08;50.10;99458.13;4943759;28;19921;-93
2022/07/23 04:03:06;;;;;;;;;;;;;;;20.13;49.92;99458.72;4965372;28;19984;-93
2022/07/23 04:05:32;;;;;;;;;;;;;;;20.16;49.75;99460.00;4980302;28;19921;-92
2022/07/23 04:07:57;;;;;;;;;;;;;;;20.15;50.29;99461.94;4963571;28;20362;-92
2022/07/23 04:10:22;;;;;;;;;;;;;;;20.17;49.73;99451.47;4963493;28;19969;-92
2022/07/23 04:12:47;;;;;;;;;;;;;;;20.16;50.04;99466.25;4977454;28;20445;-93
2022/07/23 04:15:13;;;;;;;;;;;;;;;20.19;50.20;99471.09;4959732;28;19918;-92
2022/07/23 04:17:38;;;;;;;;;;;;;;;20.31;49.79;99470.34;4944757;28;19914;-92
2022/07/23 04:20:04;;;;;;;;;;;;;;;20.32;49.91;99466.50;4962922;28;20016;-92
2022/07/23 04:22:29;;;;;;;;;;;;;;;20.37;50.09;99466.28;4963219;28;19913;-91
2022/07/23 04:24:54;;;;;;;;;;;;;;;20.43;49.60;99469.66;4960119;28;20000;-92
2022/07/23 04:27:20;;;;;;;;;;;;;;;20.48;50.03;99471.38;4959881;28;19915;-93
2022/07/23 04:29:45;;;;;;;;;;;;;;;20.53;49.63;99468.47;4925468;29;19922;-92
2022/07/23 04:32:10;;;;;;;;;;;;;;;20.56;49.67;99468.56;4956077;29;19915;-93
2022/07/23 04:34:36;;;;;;;;;;;;;;;20.62;49.64;99477.44;4956311;28;19918;-92
2022/07/23 04:37:01;;;;;;;;;;;;;;;20.66;49.55;99472.09;4940443;29;19921;-92
2022/07/23 04:39:26;;;;;;;;;;;;;;;20.67;49.93;99474.50;4971661;28;19914;-92
2022/07/23 04:41:51;;;;;;;;;;;;;;;20.67;49.66;99473.69;4959054;28;19929;-93
2022/07/23 04:44:17;;;;;;;;;;;;;;;20.76;49.86;99482.63;4972943;28;20308;-93
2022/07/23 04:46:42;;;;;;;;;;;;;;;20.78;49.46;99472.16;4962405;28;19917;-92
2022/07/23 04:49:07;;;;;;;;;;;;;;;20.87;49.91;99477.56;4966088;28;20380;-92
2022/07/23 04:51:33;;;;;;;;;;;;;;;20.92;49.75;99472.69;4958937;28;19921;-92
2022/07/23 04:53:58;;;;;;;;;;;;;;;21.02;49.35;99481.63;4954758;28;19914;-92
2022/07/23 04:56:23;;;;;;;;;;;;;;;21.12;48.62;99482.00;4962017;28;19914;-92
2022/07/23 04:58:49;;;;;;;;;;;;;;;21.15;49.22;99475.88;4962146;28;19914;-92
2022/07/23 05:01:14;;;;;;;;;;;;;;;21.22;49.04;99483.53;4978173;28;19914;-94
2022/07/23 05:03:45;;;;;;;;;;;;;;;21.35;48.32;99476.97;4952759;28;19983;-93
2022/07/23 05:06:11;;;;;;;;;;;;;;;21.45;48.04;99485.91;4943114;28;19914;-91
2022/07/23 05:08:36;;;;;;;;;;;;;;;21.60;47.76;99488.00;4951476;28;19913;-92
2022/07/23 05:11:01;;;;;;;;;;;;;;;21.71;46.47;99483.69;4961825;28;19918;-92
2022/07/23 05:13:26;;;;;;;;;;;;;;;21.88;46.24;99485.41;4954719;28;19918;-92
2022/07/23 05:15:52;;;;;;;;;;;;;;;22.10;44.92;99486.91;4942905;28;19957;-92
2022/07/23 05:18:17;;;;;;;;;;;;;;;22.11;45.89;99490.47;4949047;28;19927;-92
2022/07/23 05:20:42;;;;;;;;;;;;;;;22.25;45.01;99490.16;4961108;28;20004;-92
2022/07/23 05:23:08;;;;;;;;;;;;;;;22.42;43.73;99492.63;4956484;28;19924;-92
2022/07/23 05:25:33;;;;;;;;;;;;;;;22.54;43.71;99489.09;4942467;28;19918;-92
2022/07/23 05:27:58;;;;;;;;;;;;;;;22.53;44.08;99492.97;4945618;28;20380;-92
2022/07/23 05:30:24;;;;;;;;;;;;;;;22.63;43.92;99492.50;4977922;28;20024;-92
2022/07/23 05:32:49;;;;;;;;;;;;;;;22.75;43.67;99488.91;4959958;28;20308;-92
2022/07/23 05:35:14;;;;;;;;;;;;;;;22.88;43.28;99492.44;4941987;28;19945;-92
2022/07/23 05:37:42;;;;;;;;;;;;;;;22.96;43.76;99489.53;4959168;28;19971;-91
2022/07/23 05:40:08;;;;;;;;;;;;;;;23.03;43.90;99488.97;4961930;28;19925;-92
2022/07/23 05:42:34;;;;;;;;;;;;;;;23.12;43.78;99486.88;4962011;28;19918;-92
2022/07/23 05:44:59;;;;;;;;;;;;;;;23.19;43.03;99487.06;4942002;28;19921;-92
2022/07/23 05:47:24;;;;;;;;;;;;;;;23.25;42.20;99490.38;4941726;28;19914;-92
2022/07/23 05:49:50;;;;;;;;;;;;;;;23.36;42.68;99487.91;4942732;28;19919;-93
2022/07/23 05:52:15;;;;;;;;;;;;;;;23.47;42.44;99486.25;4942075;28;19922;-92
2022/07/23 05:54:41;;;;;;;;;;;;;;;23.52;42.94;99487.94;4958632;28;19914;-92
2022/07/23 05:57:06;;;;;;;;;;;;;;;23.60;42.75;99484.22;4942249;28;20004;-93
2022/07/23 05:59:32;;;;;;;;;;;;;;;23.70;43.13;99478.22;4941944;28;20399;-92
2022/07/23 06:01:57;;;;;;;;;;;;;;;23.87;43.20;99473.53;4942364;28;20010;-95
2022/07/23 06:04:22;;;;;;;;;;;;;;;24.08;41.04;99481.50;4957440;28;19921;-93
2022/07/23 06:06:48;;;;;;;;;;;;;;;24.16;41.42;99477.78;4978477;28;20004;-91
2022/07/23 06:09:13;;;;;;;;;;;;;;;24.29;41.23;99475.69;4963775;28;20016;-95
2022/07/23 06:11:41;;;;;;;;;;;;;;;24.35;42.34;99475.06;4962798;28;20049;-94
2022/07/23 06:14:07;;;;;;;;;;;;;;;24.48;41.82;99475.72;4964141;28;19980;-95
2022/07/23 06:16:32;;;;;;;;;;;;;;;24.66;41.27;99486.38;4963402;28;19914;-90
2022/07/23 06:18:57;;;;;;;;;;;;;;;24.73;41.62;99478.25;4961631;28;20391;-92
2022/07/23 06:21:23;;;;;;;;;;;;;;;24.75;41.24;99479.50;4961090;28;19914;-92
2022/07/23 06:23:50;;;;;;;;;;;;;;;24.84;40.02;99478.47;4953118;28;20387;-92
2022/07/23 06:26:16;;;;;;;;;;;;;;;24.93;40.62;99487.34;4945178;28;19914;-90
2022/07/23 06:28:41;;;;;;;;;;;;;;;25.01;40.67;99480.81;4953128;29;20309;-91
2022/07/23 06:31:06;;;;;;;;;;;;;;;25.11;40.69;99474.72;4942462;29;19918;-90
2022/07/23 06:33:33;;;;;;;;;;;;;;;25.26;40.98;99481.34;4942437;29;19915;-90
2022/07/23 06:35:58;;;;;;;;;;;;;;;25.44;39.51;99480.88;4958170;28;19926;-91
2022/07/23 06:38:23;;;;;;;;;;;;;;;25.56;39.52;99481.47;4949115;28;19918;-94
2022/07/23 06:40:49;;;;;;;;;;;;;;;25.67;39.40;99478.94;4945859;28;19918;-91
2022/07/23 06:43:14;;;;;;;;;;;;;;;25.82;38.99;99479.97;4945789;28;19914;-91
2022/07/23 06:45:39;;;;;;;;;;;;;;;26.05;38.05;99479.19;4962752;28;19917;-92
2022/07/23 06:48:05;;;;;;;;;;;;;;;26.19;37.66;99466.41;4961387;28;20049;-91
2022/07/23 06:50:30;;;;;;;;;;;;;;;26.28;38.63;99462.56;4944748;28;20024;-91
2022/07/23 06:52:55;;;;;;;;;;;;;;;26.42;38.05;99469.09;4945330;28;19926;-92
2022/07/23 06:55:21;;;;;;;;;;;;;;;26.53;37.55;99463.72;4945200;28;19918;-92
2022/07/23 06:57:46;;;;;;;;;;;;;;;26.58;37.27;99466.19;4945133;28;19914;-92
2022/07/23 07:00:12;;;;;;;;;;;;;;;26.80;37.46;99466.47;4961308;28;20001;-92
2022/07/23 07:02:37;;;;;;;;;;;;;;;26.99;36.98;99463.53;4960811;28;20305;-92
2022/07/23 07:05:02;;;;;;;;;;;;;;;27.11;36.82;99464.44;4945177;28;19961;-92
2022/07/23 07:07:28;;;;;;;;;;;;;;;27.25;37.22;99466.59;4945425;28;19918;-92
2022/07/23 07:09:53;;;;;;;;;;;;;;;27.38;36.74;99467.94;4944585;28;19918;-92
2022/07/23 07:12:18;;;;;;;;;;;;;;;27.53;36.68;99474.38;4960682;28;19915;-92
2022/07/23 07:14:44;;;;;;;;;;;;;;;27.66;36.43;99461.06;4961723;28;19913;-92
2022/07/23 07:17:10;;;;;;;;;;;;;;;27.78;35.97;99456.03;4964502;28;20342;-92
2022/07/23 07:19:36;;;;;;;;;;;;;;;27.94;35.09;99457.78;4963892;28;19936;-92
2022/07/23 07:22:01;;;;;;;;;;;;;;;28.07;35.65;99458.25;4964433;28;19914;-92
2022/07/23 07:24:26;;;;;;;;;;;;;;;28.15;34.60;99454.38;4981329;28;19921;-92
2022/07/23 07:26:51;;;;;;;;;;;;;;;28.23;34.02;99455.22;4963804;28;19971;-92
2022/07/23 07:29:17;;;;;;;;;;;;;;;28.41;34.63;99453.34;4960523;28;19922;-91
2022/07/23 07:31:42;;;;;;;;;;;;;;;28.52;34.35;99457.00;4944613;28;19918;-91
2022/07/23 07:34:11;;;;;;;;;;;;;;;28.67;34.38;99455.06;4960959;28;20426;-92
2022/07/23 07:36:37;;;;;;;;;;;;;;;28.80;33.69;99445.25;4945014;28;19933;-93
2022/07/23 07:39:12;;;;;;;;;;;;;;;28.94;33.05;99449.25;4961603;28;19924;-96
2022/07/23 07:41:38;;;;;;;;;;;;;;;29.02;34.45;99445.31;5072446;23;19929;-95
2022/07/23 07:44:04;;;;;;;;;;;;;;;29.13;33.54;99439.81;4980508;28;20000;-91
2022/07/23 07:46:30;;;;;;;;;;;;;;;29.26;33.69;99438.28;4994810;28;19920;-90
2022/07/23 07:48:56;;;;;;;;;;;;;;;29.42;32.76;99430.34;4995084;28;19948;-89
2022/07/23 07:51:24;;;;;;;;;;;;;;;29.56;32.86;99435.13;4995456;28;20008;-91
2022/07/23 07:53:49;;;;;;;;;;;;;;;29.69;32.02;99432.75;4995063;28;20368;-91
2022/07/23 07:56:17;;;;;;;;;;;;;;;29.78;32.39;99427.63;4995398;28;19921;-93
2022/07/23 07:58:43;;;;;;;;;;;;;;;29.95;31.59;99428.81;4995741;28;19914;-90
2022/07/23 08:01:09;;;;;;;;;;;;;;;30.07;31.22;99419.28;4995123;28;19952;-92
2022/07/23 08:03:35;;;;;;;;;;;;;;;30.20;31.59;99422.41;4994876;28;20315;-91
2022/07/23 08:06:01;;;;;;;;;;;;;;;30.34;30.97;99427.97;4995349;28;19917;-92
2022/07/23 08:08:27;;;;;;;;;;;;;;;30.44;30.66;99429.13;4980374;28;19925;-93
2022/07/23 08:10:54;;;;;;;;;;;;;;;30.56;29.81;99425.09;4995023;28;19918;-91
2022/07/23 08:13:19;;;;;;;;;;;;;;;30.66;29.57;99429.06;4978408;28;19968;-93
2022/07/23 08:15:46;;;;;;;;;;;;;;;30.73;29.34;99421.44;4964211;28;19918;-92
2022/07/23 08:18:12;;;;;;;;;;;;;;;30.87;29.37;99420.63;4980300;28;20017;-91
2022/07/23 08:20:38;;;;;;;;;;;;;;;31.05;29.17;99428.09;4979271;28;19921;-93
2022/07/23 08:23:04;;;;;;;;;;;;;;;31.12;29.19;99423.28;4978769;28;20399;-92
2022/07/23 08:25:34;;;;;;;;;;;;;;;31.19;29.35;99419.63;4963479;28;19920;-93
2022/07/23 08:28:01;;;;;;;;;;;;;;;31.28;28.24;99422.78;4980941;28;19913;-94
2022/07/23 08:30:27;;;;;;;;;;;;;;;31.39;28.89;99417.91;4965200;28;19928;-93
2022/07/23 08:32:57;;;;;;;;;;;;;;;31.48;28.07;99416.69;4979238;28;19914;-93
2022/07/23 08:35:35;;;;;;;;;;;;;;;31.61;27.63;99418.56;4995709;28;19920;-90
2022/07/23 08:38:02;;;;;;;;;;;;;;;31.74;26.99;99412.50;4980189;28;19914;-92
2022/07/23 08:40:30;;;;;;;;;;;;;;;31.76;26.72;99401.75;4964074;28;19914;-91
2022/07/23 08:42:56;;;;;;;;;;;;;;;31.87;27.04;99410.78;4979026;28;20325;-91
2022/07/23 08:45:21;;;;;;;;;;;;;;;31.91;26.06;99410.75;4961855;28;19914;-92
2022/07/23 08:47:48;;;;;;;;;;;;;;;32.04;25.95;99411.84;4962259;28;20013;-91
2022/07/23 08:50:14;;;;;;;;;;;;;;;32.11;26.42;99414.56;4977534;28;19976;-91
2022/07/23 08:52:39;;;;;;;;;;;;;;;32.21;25.77;99412.88;4978515;28;19922;-92
2022/07/23 08:55:06;;;;;;;;;;;;;;;32.32;25.79;99410.75;4962255;28;19990;-92
2022/07/23 08:57:32;;;;;;;;;;;;;;;32.40;24.71;99412.25;4977579;28;20399;-92
2022/07/23 08:59:57;;;;;;;;;;;;;;;32.47;25.19;99416.16;4961560;28;19914;-91
2022/07/23 09:02:23;;;;;;;;;;;;;;;32.58;24.68;99402.91;4962293;28;19957;-90
2022/07/23 09:04:49;;;;;;;;;;;;;;;32.67;24.24;99410.78;4977750;28;19960;-92
2022/07/23 09:07:15;;;;;;;;;;;;;;;32.75;23.97;99409.47;4977844;28;20388;-92
2022/07/23 09:09:40;;;;;;;;;;;;;;;32.84;24.35;99406.16;4962201;28;20012;-91
2022/07/23 09:12:06;;;;;;;;;;;;;;;32.89;23.70;99405.69;4961179;28;19917;-92
2022/07/23 09:14:40;;;;;;;;;;;;;;;32.92;24.14;99402.84;4961451;28;19996;-92
2022/07/23 09:17:16;;;;;;;;;;;;;;;33.00;24.93;99409.91;4961675;28;19918;-92
2022/07/23 09:19:43;;;;;;;;;;;;;;;33.05;24.29;99403.06;4961886;28;20365;-92
2022/07/23 09:22:18;;;;;;;;;;;;;;;33.05;23.67;99394.69;4962108;28;19914;-93
2022/07/23 09:25:02;;;;;;;;;;;;;;;33.09;23.46;99400.25;4963670;28;19913;-93
2022/07/23 09:27:47;;;;;;;;;;;;;;;33.20;23.89;99398.09;4978468;28;20346;-94
2022/07/23 09:30:15;;;;;;;;;;;;;;;33.29;23.59;99391.97;4920640;29;20282;-92
2022/07/23 09:32:43;;;;;;;;;;;;;;;33.35;22.92;99387.47;4935481;29;19925;-92
2022/07/23 09:35:11;;;;;;;;;;;;;;;33.39;22.33;99389.03;4935813;29;20385;-91
2022/07/23 09:37:40;;;;;;;;;;;;;;;33.45;22.15;99394.13;4935499;29;19915;-94
2022/07/23 09:40:22;;;;;;;;;;;;;;;33.51;22.97;99384.81;4919670;29;19958;-94
2022/07/23 09:42:55;;;;;;;;;;;;;;;33.59;22.58;99391.09;4934797;29;19926;-95
2022/07/23 09:45:21;;;;;;;;;;;;;;;33.75;22.03;99391.22;4935685;29;20349;-93
2022/07/23 09:47:49;;;;;;;;;;;;;;;33.86;21.89;99384.66;4900043;29;19973;-92
2022/07/23 09:50:25;;;;;;;;;;;;;;;33.91;22.04;99384.97;4900683;29;20478;-92
2022/07/23 09:52:56;;;;;;;;;;;;;;;33.99;21.71;99385.59;4916227;29;19915;-93
2022/07/23 09:55:30;;;;;;;;;;;;;;;34.05;19.63;99380.31;4900731;29;20370;-95
2022/07/23 09:57:56;;;;;;;;;;;;;;;34.09;20.94;99375.44;4884423;29;19944;-94
2022/07/23 10:00:22;;;;;;;;;;;;;;;34.11;20.90;99381.41;4919672;29;19937;-95
2022/07/23 10:02:48;;;;;;;;;;;;;;;34.18;18.74;99376.50;4935594;29;19919;-91
2022/07/23 10:05:14;;;;;;;;;;;;;;;34.20;19.52;99376.84;4935198;29;19922;-93
2022/07/23 10:07:39;;;;;;;;;;;;;;;34.20;20.43;99378.84;4919624;29;19914;-92
2022/07/23 10:10:05;;;;;;;;;;;;;;;34.25;20.38;99371.97;4935375;29;20017;-91
2022/07/23 10:15:02;;;;;;;;;;;;;;;34.34;20.64;99372.19;4935993;29;20009;-92
2022/07/23 10:17:43;;;;;;;;;;;;;;;34.33;20.86;99357.44;4918780;29;19921;-92
2022/07/23 10:20:09;;;;;;;;;;;;;;;34.28;20.67;99352.31;4976949;28;20364;-93
2022/07/23 10:22:37;;;;;;;;;;;;;;;34.36;18.72;99364.94;4976523;28;20411;-92
2022/07/23 10:25:12;;;;;;;;;;;;;;;34.40;18.85;99360.06;4960674;28;20296;-93
2022/07/23 10:27:42;;;;;;;;;;;;;;;34.36;18.83;99352.97;4992986;28;19913;-92
2022/07/23 10:30:16;;;;;;;;;;;;;;;34.42;19.27;99354.03;4960853;28;19917;-93
2022/07/23 10:33:05;;;;;;;;;;;;;;;34.55;19.70;99349.38;4994127;28;19914;-93
2022/07/23 10:35:40;;;;;;;;;;;;;;;34.55;18.89;99346.59;4977378;28;19914;-92
2022/07/23 10:38:11;;;;;;;;;;;;;;;34.58;19.62;99342.91;4991632;28;19972;-92
2022/07/23 10:40:37;;;;;;;;;;;;;;;34.62;20.24;99343.63;4976664;28;20292;-93
2022/07/23 10:43:02;;;;;;;;;;;;;;;34.58;19.88;99336.53;4976870;28;19926;-93
2022/07/23 10:45:32;;;;;;;;;;;;;;;34.71;19.45;99329.06;4977197;28;20008;-93
2022/07/23 10:48:13;;;;;;;;;;;;;;;34.83;19.88;99324.81;4995129;28;19913;-93
2022/07/23 10:50:39;;;;;;;;;;;;;;;34.95;19.94;99320.53;4977450;28;20005;-93
2022/07/23 10:53:15;;;;;;;;;;;;;;;35.05;18.67;99321.47;4992862;28;20380;-93
2022/07/23 10:55:48;;;;;;;;;;;;;;;35.04;19.31;99322.72;4977467;28;20009;-93
2022/07/23 10:58:17;;;;;;;;;;;;;;;35.14;19.33;99327.28;4977124;28;19918;-93
2022/07/23 11:00:43;;;;;;;;;;;;;;;35.25;19.05;99324.22;4976433;28;20004;-93
2022/07/23 11:03:28;;;;;;;;;;;;;;;35.20;19.08;99320.75;4976094;28;19964;-91
2022/07/23 11:05:54;;;;;;;;;;;;;;;35.23;18.42;99310.66;4977085;28;19917;-95
2022/07/23 11:08:19;;;;;;;;;;;;;;;35.29;19.19;99314.50;4962221;28;19973;-94
2022/07/23 11:10:48;;;;;;;;;;;;;;;35.25;18.96;99318.63;4981050;28;19922;-95
2022/07/23 11:13:22;;;;;;;;;;;;;;;35.31;19.10;99312.06;4981183;28;19964;-95
2022/07/23 11:16:08;;;;;;;;;;;;;;;35.34;18.83;99313.19;4980443;28;19967;-94
2022/07/23 11:18:39;;;;;;;;;;;;;;;35.44;18.81;99308.53;4979964;28;20342;-96
2022/07/23 11:21:34;;;;;;;;;;;;;;;35.46;18.78;99308.91;4980572;28;19921;-95
2022/07/23 11:24:06;;;;;;;;;;;;;;;35.57;18.76;99304.59;4959985;28;19914;-95
2022/07/23 11:26:38;;;;;;;;;;;;;;;35.66;18.76;99301.19;4979738;28;20273;-95
2022/07/23 11:29:22;;;;;;;;;;;;;;;35.68;17.80;99303.53;4980743;28;20337;-96
2022/07/23 11:31:53;;;;;;;;;;;;;;;35.67;17.64;99307.56;4980440;28;20287;-95
2022/07/23 11:34:31;;;;;;;;;;;;;;;35.72;17.82;99298.63;4981832;28;19918;-93
2022/07/23 11:36:57;;;;;;;;;;;;;;;35.77;17.92;99295.28;4998002;28;19971;-94
2022/07/23 11:39:22;;;;;;;;;;;;;;;35.83;17.87;99293.50;4963787;28;20005;-94
2022/07/23 11:41:49;;;;;;;;;;;;;;;35.84;17.88;99292.28;4980236;28;19933;-93
2022/07/23 11:44:27;;;;;;;;;;;;;;;35.86;17.13;99306.66;4998246;28;19925;-93
2022/07/23 11:46:58;;;;;;;;;;;;;;;35.87;17.99;99297.00;4980252;28;20004;-91
2022/07/23 11:49:24;;;;;;;;;;;;;;;35.86;17.22;99294.63;4980317;28;19913;-94
2022/07/23 11:52:09;;;;;;;;;;;;;;;35.88;17.66;99292.94;4980202;28;19921;-92
2022/07/23 11:54:47;;;;;;;;;;;;;;;35.89;17.35;99285.34;4981000;28;19914;-94
2022/07/23 11:57:13;;;;;;;;;;;;;;;35.99;17.00;99292.66;4980892;28;19917;-94
2022/07/23 11:59:38;;;;;;;;;;;;;;;36.11;17.09;99280.69;4964225;28;19920;-93
2022/07/23 12:02:06;;;;;;;;;;;;;;;36.15;16.42;99281.41;4964381;28;19918;-94
2022/07/23 12:04:44;;;;;;;;;;;;;;;36.08;16.24;99278.78;4980772;28;20315;-94
2022/07/23 12:07:44;;;;;;;;;;;;;;;36.13;16.00;99281.03;4980259;28;19914;-94
2022/07/23 12:10:23;;;;;;;;;;;;;;;36.10;15.17;99279.13;4928473;28;19918;-94
2022/07/23 12:12:49;;;;;;;;;;;;;;;36.08;14.54;99286.41;4980109;28;19931;-96
2022/07/23 12:15:16;;;;;;;;;;;;;;;36.10;15.16;99272.72;4978918;28;19914;-93
2022/07/23 12:17:42;;;;;;;;;;;;;;;36.12;14.95;99270.25;4995366;28;19914;-94
2022/07/23 12:20:09;;;;;;;;;;;;;;;36.10;14.93;99265.09;4978123;28;19920;-96
2022/07/23 12:22:36;;;;;;;;;;;;;;;36.15;15.30;99269.38;4979588;28;19953;-92
2022/07/23 12:25:05;;;;;;;;;;;;;;;36.21;15.03;99268.41;4979406;28;19985;-95
2022/07/23 12:27:30;;;;;;;;;;;;;;;36.29;15.42;99265.38;4978851;28;19914;-94
2022/07/23 12:29:56;;;;;;;;;;;;;;;36.18;16.42;99262.91;4963037;28;19924;-95
2022/07/23 12:32:42;;;;;;;;;;;;;;;36.32;16.38;99259.66;5032172;27;2227913;-94
2022/07/23 12:35:08;;;;;;;;;;;;;;;36.35;16.03;99253.16;5095123;28;19916;-96
2022/07/23 12:37:34;;;;;;;;;;;;;;;36.48;15.95;99253.16;5094221;28;20408;-95
2022/07/23 12:40:19;;;;;;;;;;;;;;;36.54;16.11;99254.16;5094437;28;19916;-95
2022/07/23 12:42:46;;;;;;;;;;;;;;;36.62;16.10;99249.16;5112036;28;19947;-95
2022/07/23 12:45:11;;;;;;;;;;;;;;;36.66;16.47;99237.81;5097122;28;19919;-95
2022/07/23 12:47:53;;;;;;;;;;;;;;;36.77;16.35;99244.63;5095652;28;19912;-94
2022/07/23 12:50:37;;;;;;;;;;;;;;;36.95;15.80;99246.84;5115702;28;20448;-95